Time;durP1;ratioP1;P1;durP2;ratioP2;P2;SDS_P1;SDS_P2;PMS_P1;PMS_P2;Temp;Humidity;BMP_temperature;BMP_pressure;BME280_temperature;BME280_humidity;BME280_pressure;Samples;Min_cycle;Max_cycle;Signal;HPM_P1;HPM_P2
2022/07/17 00:01:32;;;;;;;0.63;0.63;;;18.60;99.90;;;;;;5049120;28;20211;-62
2022/07/17 00:03:59;;;;;;;0.80;0.80;;;18.60;99.90;;;;;;5046080;28;20753;-61
2022/07/17 00:06:26;;;;;;;0.80;0.80;;;18.50;99.90;;;;;;5046088;28;20279;-63
2022/07/17 00:08:53;;;;;;;0.70;0.70;;;18.60;99.90;;;;;;5050300;28;20231;-62
2022/07/17 00:11:21;;;;;;;0.65;0.65;;;18.50;99.90;;;;;;5046284;28;20204;-62
2022/07/17 00:13:48;;;;;;;0.80;0.80;;;18.40;99.90;;;;;;5049266;28;20318;-62
2022/07/17 00:16:15;;;;;;;0.77;0.77;;;18.40;99.90;;;;;;5039298;28;20270;-63
2022/07/17 00:18:42;;;;;;;0.80;0.80;;;18.30;99.90;;;;;;5050486;28;20314;-62
2022/07/17 00:21:09;;;;;;;0.80;0.80;;;18.20;99.90;;;;;;5050771;28;20246;-62
2022/07/17 00:23:35;;;;;;;1.08;1.00;;;18.20;99.90;;;;;;5051084;28;20252;-63
2022/07/17 00:26:02;;;;;;;0.93;0.93;;;18.20;99.90;;;;;;5053260;28;20761;-62
2022/07/17 00:28:31;;;;;;;0.80;0.80;;;18.20;99.90;;;;;;5047444;28;20315;-62
2022/07/17 00:30:57;;;;;;;0.70;0.70;;;18.30;99.90;;;;;;5049809;28;20204;-63
2022/07/17 00:33:25;;;;;;;0.80;0.80;;;18.20;99.90;;;;;;5051922;28;20240;-63
2022/07/17 00:35:52;;;;;;;0.80;0.80;;;18.10;99.90;;;;;;5055604;28;20262;-63
2022/07/17 00:38:19;;;;;;;0.70;0.70;;;18.10;99.90;;;;;;5050720;28;21549;-63
2022/07/17 00:40:46;;;;;;;0.95;0.70;;;18.10;99.90;;;;;;5050543;28;20533;-63
2022/07/17 00:43:13;;;;;;;1.05;0.95;;;18.00;99.90;;;;;;5053171;28;20295;-62
2022/07/17 00:45:41;;;;;;;0.80;0.80;;;18.00;99.90;;;;;;5051351;28;20283;-63
2022/07/17 00:48:11;;;;;;;0.90;0.90;;;18.00;99.90;;;;;;5049252;28;20318;-62
2022/07/17 00:50:40;;;;;;;0.90;0.90;;;18.10;99.90;;;;;;5051302;28;20286;-62
2022/07/17 00:53:08;;;;;;;0.70;0.70;;;18.20;99.90;;;;;;5050790;28;20633;-63
2022/07/17 00:55:35;;;;;;;0.77;0.77;;;18.20;99.90;;;;;;5050089;28;20306;-63
2022/07/17 00:58:06;;;;;;;0.70;0.70;;;18.30;99.90;;;;;;5048820;28;20314;-62
2022/07/17 01:00:32;;;;;;;0.70;0.70;;;18.20;99.90;;;;;;5048402;28;20670;-63
2022/07/17 01:03:01;;;;;;;0.98;0.90;;;18.20;99.90;;;;;;5050059;28;20196;-63
2022/07/17 01:05:28;;;;;;;0.70;0.70;;;18.20;99.90;;;;;;5050070;28;20309;-63
2022/07/17 01:07:55;;;;;;;0.90;0.90;;;18.20;99.90;;;;;;5050570;28;20233;-63
2022/07/17 01:10:21;;;;;;;0.90;0.90;;;18.20;99.90;;;;;;5098766;22;20222;-60
2022/07/17 01:12:49;;;;;;;0.60;0.60;;;18.20;99.90;;;;;;5096483;28;20289;-60
2022/07/17 01:15:16;;;;;;;0.90;0.90;;;18.20;99.90;;;;;;5103158;28;20308;-61
2022/07/17 01:17:44;;;;;;;0.85;0.85;;;18.20;99.90;;;;;;5109059;28;20288;-60
2022/07/17 01:20:12;;;;;;;0.82;0.82;;;18.10;99.90;;;;;;5093552;28;20256;-59
2022/07/17 01:22:45;;;;;;;0.90;0.80;;;18.10;99.90;;;;;;5097211;28;20285;-60
2022/07/17 01:25:12;;;;;;;0.80;0.80;;;18.00;99.90;;;;;;5106268;28;20671;-61
2022/07/17 01:27:39;;;;;;;0.70;0.70;;;18.00;99.90;;;;;;5100425;28;20297;-60
2022/07/17 01:30:08;;;;;;;1.05;0.65;;;18.00;99.90;;;;;;5102549;28;20308;-61
2022/07/17 01:32:36;;;;;;;0.73;0.70;;;17.90;99.90;;;;;;5098469;28;20202;-60
2022/07/17 01:35:04;;;;;;;0.80;0.80;;;17.80;99.90;;;;;;5101530;28;20240;-60
2022/07/17 01:37:31;;;;;;;0.80;0.80;;;17.80;99.90;;;;;;5095810;28;20290;-59
2022/07/17 01:40:00;;;;;;;0.80;0.80;;;17.70;99.90;;;;;;5102189;28;20214;-61
2022/07/17 01:42:28;;;;;;;0.90;0.90;;;17.70;99.90;;;;;;5095819;28;20297;-60
2022/07/17 01:44:56;;;;;;;0.80;0.80;;;17.60;99.90;;;;;;5099196;28;20636;-59
2022/07/17 01:47:23;;;;;;;1.03;0.87;;;17.60;99.90;;;;;;5111418;28;20267;-59
2022/07/17 01:49:53;;;;;;;0.98;0.98;;;17.60;99.90;;;;;;5103684;28;20242;-59
2022/07/17 01:52:20;;;;;;;0.85;0.85;;;17.50;99.90;;;;;;5118650;28;20237;-60
2022/07/17 01:54:47;;;;;;;0.80;0.80;;;17.60;99.90;;;;;;5104230;28;20201;-61
2022/07/17 01:57:16;;;;;;;0.80;0.80;;;17.60;99.90;;;;;;5110041;28;20280;-61
2022/07/17 01:59:43;;;;;;;0.88;0.88;;;17.50;99.90;;;;;;5115747;28;20308;-62
2022/07/17 02:02:12;;;;;;;0.90;0.90;;;17.50;99.90;;;;;;5114804;28;20655;-61
2022/07/17 02:04:41;;;;;;;0.80;0.80;;;17.50;99.90;;;;;;5114291;28;20198;-61
2022/07/17 02:07:08;;;;;;;0.68;0.68;;;17.50;99.90;;;;;;5104823;28;20241;-60
2022/07/17 02:09:35;;;;;;;0.90;0.90;;;17.40;99.90;;;;;;5107150;28;20233;-61
2022/07/17 02:12:02;;;;;;;0.70;0.70;;;17.40;99.90;;;;;;5099183;28;20599;-60
2022/07/17 02:14:31;;;;;;;0.80;0.80;;;17.40;99.90;;;;;;5105220;28;20202;-62
2022/07/17 02:16:58;;;;;;;0.93;0.93;;;17.40;99.90;;;;;;5105290;28;20219;-61
2022/07/17 02:19:25;;;;;;;0.85;0.85;;;17.30;99.90;;;;;;5111519;28;20294;-61
2022/07/17 02:21:52;;;;;;;0.70;0.70;;;17.30;99.90;;;;;;5103819;28;20198;-60
2022/07/17 02:24:19;;;;;;;0.85;0.85;;;17.30;99.90;;;;;;5102209;28;20299;-60
2022/07/17 02:26:46;;;;;;;0.77;0.77;;;17.30;99.90;;;;;;5108525;28;20226;-61
2022/07/17 02:29:13;;;;;;;0.65;0.65;;;17.30;99.90;;;;;;5100065;28;20241;-60
2022/07/17 02:31:41;;;;;;;0.90;0.90;;;17.40;99.90;;;;;;5102403;28;20356;-59
2022/07/17 02:34:08;;;;;;;0.73;0.73;;;17.40;99.90;;;;;;5103227;28;20301;-60
2022/07/17 02:36:35;;;;;;;0.90;0.90;;;17.50;99.90;;;;;;5099720;28;20302;-62
2022/07/17 02:39:02;;;;;;;0.95;0.95;;;17.50;99.90;;;;;;5103573;28;20708;-60
2022/07/17 02:41:29;;;;;;;0.80;0.80;;;17.40;99.90;;;;;;5097478;28;20209;-60
2022/07/17 02:43:56;;;;;;;1.00;1.00;;;17.50;99.90;;;;;;5105456;28;20285;-61
2022/07/17 02:46:23;;;;;;;0.80;0.80;;;17.50;99.90;;;;;;5101064;28;20198;-61
2022/07/17 02:48:51;;;;;;;0.73;0.73;;;17.50;99.90;;;;;;5110023;28;20288;-62
2022/07/17 02:51:18;;;;;;;0.88;0.88;;;17.50;99.90;;;;;;5112086;28;20682;-60
2022/07/17 02:53:45;;;;;;;0.82;0.82;;;17.50;99.90;;;;;;5108400;28;20206;-60
2022/07/17 02:56:11;;;;;;;0.90;0.90;;;17.50;99.90;;;;;;5106101;28;20228;-59
2022/07/17 02:58:39;;;;;;;0.80;0.80;;;17.50;99.90;;;;;;5103656;28;20202;-59
2022/07/17 03:01:06;;;;;;;0.75;0.75;;;17.50;99.90;;;;;;5116393;28;20204;-60
2022/07/17 03:03:33;;;;;;;1.02;0.98;;;17.50;99.90;;;;;;5104023;28;20282;-59
2022/07/17 03:06:01;;;;;;;0.80;0.80;;;17.50;99.90;;;;;;5107409;28;20296;-61
2022/07/17 03:08:28;;;;;;;0.82;0.82;;;17.50;99.90;;;;;;5107157;28;20209;-59
2022/07/17 03:10:55;;;;;;;0.90;0.90;;;17.50;99.90;;;;;;5112681;28;20321;-59
2022/07/17 03:13:22;;;;;;;0.90;0.90;;;17.50;99.90;;;;;;5108865;28;20201;-59
2022/07/17 03:15:49;;;;;;;0.82;0.82;;;17.50;99.90;;;;;;5105435;28;20215;-61
2022/07/17 03:18:16;;;;;;;1.20;0.73;;;17.40;99.90;;;;;;5110138;28;20208;-61
2022/07/17 03:20:42;;;;;;;0.60;0.60;;;17.40;99.90;;;;;;5097661;28;20226;-63
2022/07/17 03:23:11;;;;;;;0.90;0.90;;;17.40;99.90;;;;;;5103275;28;20278;-60
2022/07/17 03:25:37;;;;;;;0.82;0.82;;;17.40;99.90;;;;;;5099732;28;20202;-59
2022/07/17 03:28:05;;;;;;;0.52;0.52;;;17.40;99.90;;;;;;5102497;28;20339;-61
2022/07/17 03:30:31;;;;;;;0.70;0.70;;;17.40;99.90;;;;;;5110782;28;20232;-61
2022/07/17 03:32:58;;;;;;;0.95;0.90;;;17.40;99.90;;;;;;5097939;28;20225;-60
2022/07/17 03:35:25;;;;;;;0.60;0.60;;;17.40;99.90;;;;;;5104591;28;20209;-60
2022/07/17 03:37:52;;;;;;;0.77;0.77;;;17.40;99.90;;;;;;5099190;28;20198;-60
2022/07/17 03:40:20;;;;;;;0.70;0.70;;;17.40;99.90;;;;;;5104351;28;20222;-60
2022/07/17 03:42:47;;;;;;;0.80;0.80;;;17.50;99.90;;;;;;5094728;28;20201;-60
2022/07/17 03:45:14;;;;;;;0.85;0.85;;;17.50;99.90;;;;;;5101471;28;20304;-60
2022/07/17 03:47:40;;;;;;;0.80;0.80;;;17.50;99.90;;;;;;5102884;28;20209;-59
2022/07/17 03:50:08;;;;;;;0.63;0.63;;;17.50;99.90;;;;;;5097630;28;20317;-60
2022/07/17 03:52:35;;;;;;;0.83;0.83;;;17.50;99.90;;;;;;5102853;28;20289;-60
2022/07/17 03:55:01;;;;;;;0.80;0.80;;;17.40;99.90;;;;;;5095786;28;20208;-60
2022/07/17 03:57:30;;;;;;;0.80;0.80;;;17.40;99.90;;;;;;5102652;28;20221;-59
2022/07/17 03:59:57;;;;;;;0.80;0.80;;;17.40;99.90;;;;;;5093994;28;20238;-59
2022/07/17 04:02:24;;;;;;;0.80;0.80;;;17.30;99.90;;;;;;5103223;28;20198;-59
2022/07/17 04:04:50;;;;;;;0.93;0.93;;;17.30;99.90;;;;;;5103995;28;20203;-59
2022/07/17 04:07:30;;;;;;;0.93;0.93;;;17.30;99.90;;;;;;5105541;28;20218;-59
2022/07/17 04:09:58;;;;;;;0.80;0.80;;;17.30;99.90;;;;;;5105487;28;20226;-58
2022/07/17 04:12:26;;;;;;;1.40;0.82;;;17.30;99.90;;;;;;5103405;28;20301;-59
2022/07/17 04:14:54;;;;;;;0.80;0.80;;;17.30;99.90;;;;;;5109579;28;20305;-62
2022/07/17 04:17:21;;;;;;;0.77;0.77;;;17.30;99.90;;;;;;5113630;28;20306;-60
2022/07/17 04:19:48;;;;;;;0.82;0.80;;;17.30;99.90;;;;;;5109099;28;20286;-61
2022/07/17 04:22:15;;;;;;;0.70;0.70;;;17.30;99.90;;;;;;5112830;28;20281;-59
2022/07/17 04:24:42;;;;;;;0.93;0.93;;;17.30;99.90;;;;;;5110963;28;20298;-60
2022/07/17 04:27:09;;;;;;;0.90;0.90;;;17.30;99.90;;;;;;5109974;28;20593;-59
2022/07/17 04:29:37;;;;;;;0.90;0.90;;;17.30;99.90;;;;;;5101639;28;20313;-61
2022/07/17 04:32:06;;;;;;;0.85;0.85;;;17.30;99.90;;;;;;5107430;28;20241;-59
2022/07/17 04:34:34;;;;;;;0.70;0.70;;;17.40;99.90;;;;;;5113482;28;20206;-60
2022/07/17 04:37:01;;;;;;;0.90;0.90;;;17.40;99.90;;;;;;5109581;28;20692;-59
2022/07/17 04:39:28;;;;;;;0.77;0.77;;;17.30;99.90;;;;;;5111493;28;20316;-59
2022/07/17 04:41:55;;;;;;;0.65;0.65;;;17.30;99.90;;;;;;5108749;28;20199;-61
2022/07/17 04:44:22;;;;;;;0.82;0.82;;;17.40;99.90;;;;;;5111570;28;20206;-61
2022/07/17 04:46:49;;;;;;;0.80;0.80;;;17.60;99.90;;;;;;5102270;28;20226;-61
2022/07/17 04:49:17;;;;;;;0.70;0.70;;;17.70;99.90;;;;;;5108583;28;20217;-60
2022/07/17 04:51:44;;;;;;;0.90;0.90;;;17.60;99.90;;;;;;5111962;28;20955;-61
2022/07/17 04:54:10;;;;;;;0.88;0.88;;;17.50;99.90;;;;;;5109033;28;20202;-59
2022/07/17 04:56:37;;;;;;;0.88;0.88;;;17.50;99.90;;;;;;5111840;28;20305;-59
2022/07/17 04:59:05;;;;;;;0.90;0.90;;;17.50;99.90;;;;;;5109648;28;20241;-59
2022/07/17 05:01:31;;;;;;;1.02;0.70;;;17.40;99.90;;;;;;5110108;28;20694;-61
2022/07/17 05:03:58;;;;;;;1.48;0.93;;;17.30;99.90;;;;;;5107420;28;20205;-59
2022/07/17 05:06:27;;;;;;;1.02;1.00;;;17.20;99.90;;;;;;5110181;28;20291;-59
2022/07/17 05:08:54;;;;;;;0.80;0.80;;;17.30;99.90;;;;;;5112129;28;20208;-61
2022/07/17 05:11:21;;;;;;;1.00;1.00;;;17.20;99.90;;;;;;5109197;28;20281;-60
2022/07/17 05:13:48;;;;;;;0.73;0.73;;;17.30;99.90;;;;;;5100087;28;20711;-60
2022/07/17 05:16:14;;;;;;;0.80;0.80;;;17.30;99.90;;;;;;5097950;28;20244;-59
2022/07/17 05:18:41;;;;;;;0.80;0.80;;;17.50;99.90;;;;;;5100273;28;20668;-59
2022/07/17 05:21:08;;;;;;;0.80;0.80;;;17.60;99.90;;;;;;5099146;28;20198;-59
2022/07/17 05:23:36;;;;;;;0.98;0.80;;;17.80;99.90;;;;;;5100240;28;20201;-60
2022/07/17 05:26:03;;;;;;;0.77;0.77;;;18.30;99.90;;;;;;5092665;28;20203;-59
2022/07/17 05:28:30;;;;;;;0.98;0.98;;;18.70;99.90;;;;;;5102717;28;20554;-59
2022/07/17 05:30:57;;;;;;;0.80;0.80;;;19.00;99.90;;;;;;5096477;28;20285;-59
2022/07/17 05:33:24;;;;;;;0.90;0.90;;;19.00;99.90;;;;;;5103382;28;20728;-58
2022/07/17 05:35:51;;;;;;;0.70;0.70;;;19.10;99.90;;;;;;5104259;28;20675;-59
2022/07/17 05:38:17;;;;;;;1.75;1.00;;;19.30;99.90;;;;;;5104551;28;20228;-60
2022/07/17 05:40:46;;;;;;;0.80;0.80;;;19.30;99.90;;;;;;5102865;28;20230;-58
2022/07/17 05:43:13;;;;;;;0.80;0.80;;;19.00;99.90;;;;;;5105585;28;20199;-59
2022/07/17 05:45:39;;;;;;;0.80;0.80;;;19.20;99.90;;;;;;5102898;28;20664;-58
2022/07/17 05:48:07;;;;;;;0.80;0.80;;;19.50;99.90;;;;;;5111638;28;20196;-58
2022/07/17 05:50:34;;;;;;;0.90;0.90;;;19.60;99.90;;;;;;5100418;28;20226;-60
2022/07/17 05:53:01;;;;;;;1.17;1.08;;;19.70;99.90;;;;;;5105454;28;20624;-60
2022/07/17 05:55:28;;;;;;;0.70;0.70;;;19.50;99.90;;;;;;5103052;28;20210;-59
2022/07/17 05:57:56;;;;;;;0.80;0.80;;;19.40;99.90;;;;;;5104234;28;20580;-60
2022/07/17 06:00:23;;;;;;;0.90;0.90;;;19.50;99.90;;;;;;5103665;28;20666;-60
2022/07/17 06:02:50;;;;;;;1.02;1.00;;;19.60;99.90;;;;;;5106658;28;20285;-60
2022/07/17 06:05:17;;;;;;;0.90;0.90;;;19.60;99.90;;;;;;5107685;28;20220;-58
2022/07/17 06:07:44;;;;;;;0.80;0.80;;;19.90;99.90;;;;;;5109263;28;20732;-60
2022/07/17 06:10:11;;;;;;;1.13;1.02;;;19.80;99.90;;;;;;5102674;28;20240;-58
2022/07/17 06:12:38;;;;;;;1.17;1.05;;;20.00;99.90;;;;;;5104622;28;20212;-59
2022/07/17 06:15:07;;;;;;;0.93;0.93;;;20.20;99.90;;;;;;5100808;28;20566;-58
2022/07/17 06:17:34;;;;;;;0.80;0.80;;;20.30;99.90;;;;;;5100253;28;20223;-59
2022/07/17 06:20:01;;;;;;;0.88;0.88;;;20.20;99.90;;;;;;5098318;28;20300;-58
2022/07/17 06:22:28;;;;;;;1.00;1.00;;;19.90;99.90;;;;;;5105400;28;20206;-59
2022/07/17 06:24:55;;;;;;;0.90;0.90;;;20.10;99.90;;;;;;5104679;28;20218;-59
2022/07/17 06:27:21;;;;;;;0.80;0.80;;;20.30;99.90;;;;;;5107794;28;20284;-59
2022/07/17 06:29:48;;;;;;;0.95;0.90;;;20.40;99.90;;;;;;5107970;28;20222;-59
2022/07/17 06:32:17;;;;;;;0.68;0.68;;;20.30;99.90;;;;;;5105719;28;20249;-59
2022/07/17 06:34:44;;;;;;;1.00;1.00;;;20.40;99.90;;;;;;5105857;28;20225;-59
2022/07/17 06:37:10;;;;;;;1.02;0.98;;;20.60;99.90;;;;;;5099954;28;20309;-59
2022/07/17 06:39:37;;;;;;;0.80;0.80;;;20.80;99.90;;;;;;5108833;28;20222;-59
2022/07/17 06:42:05;;;;;;;0.85;0.85;;;20.90;99.90;;;;;;5113311;28;20292;-60
2022/07/17 06:44:33;;;;;;;1.33;1.10;;;21.10;99.90;;;;;;5108347;28;21552;-58
2022/07/17 06:47:00;;;;;;;0.88;0.88;;;21.20;99.90;;;;;;5111613;28;20190;-60
2022/07/17 06:49:28;;;;;;;0.80;0.80;;;21.30;99.90;;;;;;5112833;28;20221;-59
2022/07/17 06:51:55;;;;;;;0.75;0.75;;;21.30;99.90;;;;;;5108971;28;20277;-59
2022/07/17 06:54:25;;;;;;;0.75;0.75;;;21.50;99.90;;;;;;5108670;28;20289;-59
2022/07/17 06:56:53;;;;;;;0.80;0.80;;;21.60;99.90;;;;;;5108262;28;20313;-59
2022/07/17 06:59:20;;;;;;;0.90;0.90;;;21.70;99.90;;;;;;5113630;28;20271;-58
2022/07/17 07:01:47;;;;;;;0.88;0.88;;;21.70;99.90;;;;;;5109547;28;20281;-59
2022/07/17 07:04:14;;;;;;;2.40;0.80;;;21.80;99.90;;;;;;5109805;28;20224;-59
2022/07/17 07:06:43;;;;;;;0.90;0.90;;;21.90;99.90;;;;;;5108033;28;20285;-60
2022/07/17 07:09:11;;;;;;;0.90;0.90;;;21.90;99.90;;;;;;5106491;28;20746;-60
2022/07/17 07:11:38;;;;;;;0.93;0.93;;;21.90;99.90;;;;;;5105222;22;20607;-61
2022/07/17 07:14:05;;;;;;;0.90;0.90;;;21.90;99.90;;;;;;5087714;28;20252;-62
2022/07/17 07:16:32;;;;;;;1.00;1.00;;;22.00;99.90;;;;;;5092234;28;20203;-62
2022/07/17 07:18:59;;;;;;;0.90;0.90;;;22.10;99.90;;;;;;5089393;28;20290;-62
2022/07/17 07:21:26;;;;;;;0.90;0.90;;;22.00;99.90;;;;;;5071901;28;20233;-63
2022/07/17 07:23:55;;;;;;;1.20;0.90;;;22.20;99.90;;;;;;5074469;28;20198;-63
2022/07/17 07:26:21;;;;;;;1.42;1.00;;;22.40;99.90;;;;;;5081072;28;20221;-63
2022/07/17 07:28:48;;;;;;;1.00;1.00;;;22.50;99.90;;;;;;5072660;28;20290;-62
2022/07/17 07:31:16;;;;;;;1.00;1.00;;;22.50;99.90;;;;;;5067447;28;20286;-62
2022/07/17 07:33:44;;;;;;;1.00;0.98;;;22.60;99.90;;;;;;5077010;28;20250;-62
2022/07/17 07:36:11;;;;;;;0.90;0.90;;;22.60;99.90;;;;;;5071919;28;20290;-62
2022/07/17 07:38:37;;;;;;;0.80;0.80;;;22.60;99.90;;;;;;5071533;28;20306;-65
2022/07/17 07:41:06;;;;;;;0.88;0.88;;;22.60;99.90;;;;;;5069813;28;20234;-63
2022/07/17 07:43:33;;;;;;;0.80;0.80;;;22.60;99.90;;;;;;5072311;28;20234;-63
2022/07/17 07:45:59;;;;;;;0.95;0.95;;;22.70;99.90;;;;;;5072286;28;20505;-65
2022/07/17 07:48:26;;;;;;;0.80;0.80;;;22.80;99.90;;;;;;5071425;28;20230;-61
2022/07/17 07:50:53;;;;;;;1.20;1.00;;;22.80;99.90;;;;;;5069973;28;20314;-63
2022/07/17 07:53:20;;;;;;;0.88;0.88;;;22.80;99.90;;;;;;5071253;28;20230;-64
2022/07/17 07:55:47;;;;;;;0.80;0.80;;;22.90;99.90;;;;;;5072915;28;20289;-62
2022/07/17 07:58:15;;;;;;;0.90;0.90;;;22.70;99.90;;;;;;5069981;28;20222;-61
2022/07/17 08:00:45;;;;;;;1.13;1.00;;;22.80;99.90;;;;;;5070561;28;20223;-63
2022/07/17 08:03:12;;;;;;;0.80;0.80;;;22.70;99.90;;;;;;5069195;28;20716;-63
2022/07/17 08:05:39;;;;;;;1.02;0.98;;;22.80;99.90;;;;;;5071842;28;20207;-63
2022/07/17 08:08:06;;;;;;;0.98;0.98;;;22.80;99.90;;;;;;5070239;28;20191;-62
2022/07/17 08:10:33;;;;;;;0.90;0.90;;;23.00;99.90;;;;;;5071372;28;20681;-63
2022/07/17 08:13:00;;;;;;;0.90;0.90;;;23.00;99.90;;;;;;5072577;28;20210;-63
2022/07/17 08:15:28;;;;;;;0.82;0.82;;;23.10;99.90;;;;;;5072256;28;20208;-62
2022/07/17 08:17:55;;;;;;;1.40;1.00;;;23.20;99.90;;;;;;5071893;28;20400;-63
2022/07/17 08:20:23;;;;;;;0.93;0.93;;;23.20;99.90;;;;;;5071333;28;20306;-63
2022/07/17 08:22:50;;;;;;;1.00;1.00;;;23.30;99.90;;;;;;5068659;28;20282;-65
2022/07/17 08:25:17;;;;;;;0.80;0.80;;;23.50;99.90;;;;;;5072411;28;20223;-64
2022/07/17 08:27:45;;;;;;;0.70;0.70;;;23.60;99.90;;;;;;5071681;28;20238;-62
2022/07/17 08:30:14;;;;;;;0.88;0.88;;;23.70;99.90;;;;;;5069094;28;20257;-62
2022/07/17 08:32:43;;;;;;;0.88;0.88;;;23.70;99.90;;;;;;5073958;28;20640;-63
2022/07/17 08:35:11;;;;;;;0.70;0.70;;;23.90;99.90;;;;;;5073689;28;20246;-63
2022/07/17 08:37:46;;;;;;;0.80;0.80;;;24.00;99.90;;;;;;5073370;28;20211;-62
2022/07/17 08:40:22;;;;;;;1.10;1.00;;;24.00;99.90;;;;;;5068226;28;20219;-62
2022/07/17 08:42:50;;;;;;;0.75;0.75;;;24.10;99.90;;;;;;5069211;28;20282;-63
2022/07/17 08:45:17;;;;;;;0.82;0.82;;;24.20;99.90;;;;;;5069835;28;20306;-61
2022/07/17 08:47:46;;;;;;;1.08;0.90;;;24.40;99.90;;;;;;5069492;28;20356;-63
2022/07/17 08:50:14;;;;;;;0.70;0.70;;;24.40;99.90;;;;;;5068290;28;20441;-63
2022/07/17 08:52:42;;;;;;;0.68;0.68;;;24.40;99.90;;;;;;5068542;28;20210;-62
2022/07/17 08:55:12;;;;;;;1.02;0.75;;;24.50;99.90;;;;;;5070137;28;20210;-63
2022/07/17 08:57:41;;;;;;;1.10;1.00;;;24.60;99.90;;;;;;5067397;28;20219;-62
2022/07/17 09:00:10;;;;;;;0.95;0.95;;;24.60;99.90;;;;;;5066004;28;20227;-63
2022/07/17 09:02:37;;;;;;;0.73;0.70;;;24.80;99.90;;;;;;5067457;28;20685;-63
2022/07/17 09:05:07;;;;;;;0.90;0.90;;;24.80;99.90;;;;;;5069808;28;20200;-62
2022/07/17 09:07:34;;;;;;;0.60;0.60;;;24.80;99.90;;;;;;5067671;28;20199;-61
2022/07/17 09:10:01;;;;;;;0.88;0.88;;;24.80;99.90;;;;;;5069207;28;20303;-61
2022/07/17 09:12:30;;;;;;;1.15;0.80;;;24.90;99.90;;;;;;5068894;28;20630;-63
2022/07/17 09:14:57;;;;;;;0.80;0.80;;;25.10;99.90;;;;;;5067634;28;20279;-64
2022/07/17 09:17:26;;;;;;;0.82;0.82;;;25.20;99.90;;;;;;5068011;28;20205;-64
2022/07/17 09:19:54;;;;;;;0.75;0.75;;;25.40;99.90;;;;;;5067326;28;20215;-62
2022/07/17 09:22:24;;;;;;;0.85;0.85;;;25.50;99.90;;;;;;5067305;28;20205;-63
2022/07/17 09:24:53;;;;;;;1.17;0.80;;;25.50;99.90;;;;;;5070217;28;20544;-64
2022/07/17 09:27:31;;;;;;;1.25;0.98;;;25.40;99.90;;;;;;5065783;28;20633;-63
2022/07/17 09:30:00;;;;;;;0.60;0.60;;;25.50;99.90;;;;;;5068337;28;20227;-63
2022/07/17 09:32:32;;;;;;;0.80;0.80;;;25.60;99.90;;;;;;5070821;28;20214;-63
2022/07/17 09:35:00;;;;;;;1.45;1.27;;;25.60;99.90;;;;;;5068953;28;20344;-62
2022/07/17 09:37:31;;;;;;;0.80;0.80;;;25.60;99.90;;;;;;5077063;28;20306;-61
2022/07/17 09:39:58;;;;;;;0.80;0.80;;;25.70;99.90;;;;;;5067703;28;20227;-63
2022/07/17 09:42:27;;;;;;;0.70;0.70;;;25.70;99.90;;;;;;5067550;28;20660;-61
2022/07/17 09:45:03;;;;;;;0.80;0.80;;;25.80;99.90;;;;;;5070712;28;20199;-63
2022/07/17 09:47:31;;;;;;;1.10;1.00;;;26.00;99.90;;;;;;5066848;28;20571;-62
2022/07/17 09:50:00;;;;;;;0.95;0.95;;;26.00;99.90;;;;;;5066953;28;20651;-63
2022/07/17 09:52:31;;;;;;;0.93;0.90;;;26.30;99.90;;;;;;5064758;28;20231;-62
2022/07/17 09:55:00;;;;;;;0.90;0.90;;;26.30;99.90;;;;;;5065528;28;20854;-62
2022/07/17 09:57:30;;;;;;;0.80;0.80;;;26.40;99.90;;;;;;5075351;28;20650;-64
2022/07/17 10:00:00;;;;;;;1.02;0.90;;;26.50;99.90;;;;;;5070342;28;20222;-62
2022/07/17 10:02:27;;;;;;;0.70;0.70;;;26.60;99.90;;;;;;5070682;28;20290;-63
2022/07/17 10:04:54;;;;;;;1.15;1.13;;;26.60;99.90;;;;;;5069442;28;20285;-63
2022/07/17 10:07:23;;;;;;;0.88;0.88;;;26.60;99.90;;;;;;5072656;28;20587;-63
2022/07/17 10:09:51;;;;;;;0.88;0.82;;;26.60;99.90;;;;;;5069498;28;20313;-62
2022/07/17 10:12:20;;;;;;;1.73;1.20;;;26.80;99.90;;;;;;5078022;28;20201;-62
2022/07/17 10:14:48;;;;;;;1.65;0.95;;;26.90;99.90;;;;;;5073061;28;20281;-62
2022/07/17 10:17:23;;;;;;;0.98;0.90;;;27.10;99.90;;;;;;5078869;28;20567;-62
2022/07/17 10:19:53;;;;;;;0.90;0.90;;;27.20;99.90;;;;;;5081686;28;20700;-62
2022/07/17 10:22:21;;;;;;;0.90;0.90;;;27.40;99.90;;;;;;5073358;28;20202;-62
2022/07/17 10:24:49;;;;;;;1.23;0.82;;;27.50;99.90;;;;;;5082969;28;20199;-62
2022/07/17 10:27:22;;;;;;;0.85;0.85;;;27.70;99.90;;;;;;5078118;28;20628;-61
2022/07/17 10:30:00;;;;;;;0.80;0.80;;;27.50;99.90;;;;;;5085033;28;20673;-62
2022/07/17 10:32:28;;;;;;;0.82;0.82;;;27.50;99.90;;;;;;5074338;28;20199;-61
2022/07/17 10:34:59;;;;;;;0.80;0.80;;;27.60;99.90;;;;;;5076300;28;20194;-61
2022/07/17 10:37:28;;;;;;;1.27;1.00;;;27.60;99.90;;;;;;5080221;28;20290;-61
2022/07/17 10:39:57;;;;;;;0.90;0.90;;;27.80;99.90;;;;;;5081449;28;20314;-64
2022/07/17 10:42:53;;;;;;;2.65;1.13;;;28.10;99.90;;;;;;5079078;28;20272;-64
2022/07/17 10:45:21;;;;;;;1.38;1.15;;;28.10;99.90;;;;;;5070360;28;20286;-62
2022/07/17 10:47:51;;;;;;;0.93;0.93;;;28.10;99.90;;;;;;5075405;28;20282;-64
2022/07/17 10:50:21;;;;;;;1.50;0.88;;;28.10;99.90;;;;;;5072491;28;20223;-61
2022/07/17 10:53:01;;;;;;;0.60;0.60;;;28.20;99.90;;;;;;5072581;28;20295;-62
2022/07/17 10:55:29;;;;;;;0.93;0.93;;;28.20;99.90;;;;;;5072878;28;20294;-62
2022/07/17 10:57:58;;;;;;;0.70;0.70;;;28.50;99.90;;;;;;5073364;28;20203;-61
2022/07/17 11:00:25;;;;;;;0.85;0.85;;;28.60;99.90;;;;;;5074390;28;20368;-63
2022/07/17 11:02:52;;;;;;;0.85;0.85;;;28.40;99.90;;;;;;5072302;28;20641;-62
2022/07/17 11:05:20;;;;;;;1.35;0.82;;;28.30;99.90;;;;;;5073332;28;20286;-62
2022/07/17 11:07:52;;;;;;;1.13;1.10;;;28.40;99.90;;;;;;5073982;28;20668;-63
2022/07/17 11:10:19;;;;;;;0.80;0.80;;;28.50;99.90;;;;;;5078436;28;20234;-63
2022/07/17 11:12:46;;;;;;;1.20;0.82;;;28.50;99.90;;;;;;5074880;28;20269;-62
2022/07/17 11:15:14;;;;;;;0.98;0.98;;;28.60;99.90;;;;;;5077019;28;20235;-63
2022/07/17 11:17:46;;;;;;;0.73;0.73;;;28.80;99.90;;;;;;5078261;28;20267;-61
2022/07/17 11:20:13;;;;;;;0.80;0.80;;;29.00;99.90;;;;;;5077493;28;20219;-62
2022/07/17 11:22:40;;;;;;;0.90;0.90;;;29.20;99.90;;;;;;5073602;28;20238;-62
2022/07/17 11:25:09;;;;;;;2.15;0.88;;;29.20;99.40;;;;;;5071917;28;20294;-63
2022/07/17 11:27:38;;;;;;;0.90;0.90;;;29.40;99.40;;;;;;5075534;28;20215;-61
2022/07/17 11:30:06;;;;;;;1.42;0.70;;;29.50;99.00;;;;;;5070783;28;20243;-63
2022/07/17 11:32:35;;;;;;;1.55;1.05;;;29.60;98.50;;;;;;5071822;28;20594;-63
2022/07/17 11:35:02;;;;;;;0.82;0.82;;;29.70;98.80;;;;;;5073886;28;20322;-62
2022/07/17 11:37:31;;;;;;;1.15;0.75;;;29.80;98.00;;;;;;5074849;28;20648;-62
2022/07/17 11:39:58;;;;;;;0.60;0.60;;;29.90;98.30;;;;;;5080470;28;20689;-62
2022/07/17 11:42:25;;;;;;;0.90;0.90;;;29.70;97.60;;;;;;5072930;28;20211;-63
2022/07/17 11:44:56;;;;;;;0.70;0.70;;;29.70;97.80;;;;;;5072921;28;20217;-62
2022/07/17 11:47:26;;;;;;;0.88;0.88;;;29.90;98.00;;;;;;5072964;28;20200;-63
2022/07/17 11:50:06;;;;;;;0.93;0.93;;;29.90;97.60;;;;;;5072069;28;20218;-61
2022/07/17 11:52:42;;;;;;;0.80;0.80;;;29.60;97.10;;;;;;5071151;28;20964;-64
2022/07/17 11:55:11;;;;;;;1.38;0.85;;;29.70;97.40;;;;;;5073116;28;20548;-63
2022/07/17 11:57:46;;;;;;;0.80;0.80;;;29.70;97.20;;;;;;5070995;28;20257;-62
2022/07/17 12:00:16;;;;;;;1.63;1.00;;;29.70;96.90;;;;;;5072101;28;20222;-62
2022/07/17 12:02:43;;;;;;;0.80;0.80;;;29.30;96.80;;;;;;5074086;28;20200;-62
2022/07/17 12:05:11;;;;;;;0.80;0.80;;;29.40;97.00;;;;;;5076936;28;20873;-62
2022/07/17 12:07:44;;;;;;;0.70;0.70;;;29.50;96.70;;;;;;5072940;28;20234;-61
2022/07/17 12:10:16;;;;;;;0.63;0.63;;;29.70;97.10;;;;;;5072430;28;20227;-61
2022/07/17 12:12:54;;;;;;;1.10;1.00;;;29.80;96.80;;;;;;5070772;28;20231;-61
2022/07/17 12:15:21;;;;;;;0.85;0.85;;;29.90;96.40;;;;;;5071734;28;20210;-62
2022/07/17 12:17:48;;;;;;;0.90;0.90;;;29.80;96.30;;;;;;5072068;28;20275;-62
2022/07/17 12:20:17;;;;;;;1.05;0.98;;;29.70;96.40;;;;;;5072410;28;20228;-63
2022/07/17 12:22:45;;;;;;;1.00;1.00;;;29.90;96.20;;;;;;5072109;28;20275;-63
2022/07/17 12:25:23;;;;;;;0.90;0.90;;;29.70;96.00;;;;;;5067807;28;20200;-62
2022/07/17 12:27:50;;;;;;;0.70;0.70;;;29.70;95.80;;;;;;5072573;28;20298;-63
2022/07/17 12:30:17;;;;;;;0.80;0.80;;;29.80;96.20;;;;;;5074250;28;20235;-63
2022/07/17 12:32:44;;;;;;;0.80;0.80;;;30.00;95.80;;;;;;5076616;28;20196;-64
2022/07/17 12:35:11;;;;;;;2.38;0.98;;;30.10;95.40;;;;;;5070824;28;20234;-63
2022/07/17 12:37:39;;;;;;;0.70;0.70;;;30.00;95.20;;;;;;5070082;28;20322;-63
2022/07/17 12:40:07;;;;;;;0.98;0.98;;;30.20;95.10;;;;;;5078148;28;20226;-63
2022/07/17 12:42:34;;;;;;;0.80;0.80;;;30.30;94.20;;;;;;5074915;28;20199;-63
2022/07/17 12:45:02;;;;;;;0.60;0.60;;;30.10;94.20;;;;;;5072526;28;20265;-61
2022/07/17 12:47:29;;;;;;;0.90;0.90;;;30.20;94.70;;;;;;5074081;28;20207;-61
2022/07/17 12:49:56;;;;;;;0.70;0.70;;;30.40;93.70;;;;;;5064359;28;20685;-63
2022/07/17 12:52:22;;;;;;;0.80;0.80;;;30.50;93.80;;;;;;5071283;28;20203;-63